createdAt,value
2022-07-31T00:00:22.637Z,23.90
2022-07-31T00:02:49.664Z,23.90
2022-07-31T00:05:16.906Z,23.80
2022-07-31T00:07:43.880Z,23.80
2022-07-31T00:10:11.183Z,23.70
2022-07-31T00:12:38.176Z,23.70
2022-07-31T00:15:07.257Z,23.70
2022-07-31T00:17:34.431Z,23.70
2022-07-31T00:20:02.112Z,23.60
2022-07-31T00:22:29.628Z,23.60
2022-07-31T00:24:57.164Z,23.60
2022-07-31T00:27:24.649Z,23.60
2022-07-31T00:29:51.981Z,23.50
2022-07-31T00:32:19.359Z,23.50
2022-07-31T00:34:46.300Z,23.50
2022-07-31T00:37:13.735Z,23.50
2022-07-31T00:39:40.708Z,23.40
2022-07-31T00:42:21.680Z,23.40
2022-07-31T00:44:49.172Z,23.40
2022-07-31T00:47:17.253Z,23.30
2022-07-31T00:49:45.396Z,23.30
2022-07-31T00:52:12.915Z,23.30
2022-07-31T00:54:40.223Z,23.20
2022-07-31T00:57:07.807Z,23.20
2022-07-31T00:59:34.863Z,23.20
2022-07-31T01:02:01.991Z,23.20
2022-07-31T01:04:31.294Z,23.10
2022-07-31T01:07:00.787Z,23.10
2022-07-31T01:09:28.306Z,23.10
2022-07-31T01:12:09.701Z,23.00
2022-07-31T01:14:41.676Z,23.00
2022-07-31T01:17:10.696Z,23.00
2022-07-31T01:19:42.859Z,23.00
2022-07-31T01:22:49.584Z,23.00
2022-07-31T01:25:32.266Z,23.00
2022-07-31T01:28:40.414Z,22.90
2022-07-31T01:31:25.986Z,22.80
2022-07-31T01:34:28.468Z,22.80
2022-07-31T01:37:05.987Z,22.80
2022-07-31T01:39:36.085Z,22.70
2022-07-31T01:42:06.976Z,22.70
2022-07-31T01:44:42.057Z,22.70
2022-07-31T01:47:12.960Z,22.60
2022-07-31T01:49:41.359Z,22.60
2022-07-31T01:52:10.065Z,22.60
2022-07-31T01:54:38.760Z,22.60
2022-07-31T01:57:07.347Z,22.60
2022-07-31T01:59:42.552Z,22.50
2022-07-31T02:02:21.831Z,22.50
2022-07-31T02:04:50.391Z,22.50
2022-07-31T02:07:18.437Z,22.40
2022-07-31T02:09:58.123Z,22.40
2022-07-31T02:12:33.969Z,22.40
2022-07-31T02:15:08.385Z,22.40
2022-07-31T02:17:39.104Z,22.40
2022-07-31T02:20:33.311Z,22.40
2022-07-31T02:23:01.565Z,22.40
2022-07-31T02:25:29.644Z,22.40
2022-07-31T02:27:59.816Z,22.40
2022-07-31T02:30:39.404Z,22.40
2022-07-31T02:33:20.306Z,22.40
2022-07-31T02:35:50.223Z,22.40
2022-07-31T02:38:23.257Z,22.30
2022-07-31T02:40:56.684Z,22.30
2022-07-31T02:43:26.833Z,22.30
2022-07-31T02:45:57.474Z,22.30
2022-07-31T02:48:26.527Z,22.30
2022-07-31T02:50:57.073Z,22.20
2022-07-31T02:53:24.847Z,22.20
2022-07-31T02:55:55.922Z,22.10
2022-07-31T02:58:22.972Z,22.10
2022-07-31T03:00:59.832Z,22.10
2022-07-31T03:03:26.919Z,22.10
2022-07-31T03:05:54.048Z,22.10
2022-07-31T03:08:21.258Z,22.00
2022-07-31T03:10:52.120Z,22.00
2022-07-31T03:13:22.575Z,22.00
2022-07-31T03:15:51.212Z,22.00
2022-07-31T03:18:21.625Z,22.00
2022-07-31T03:20:52.918Z,22.00
2022-07-31T03:23:23.919Z,22.00
2022-07-31T03:25:58.249Z,22.00
2022-07-31T03:28:25.385Z,21.90
2022-07-31T03:30:55.123Z,21.90
2022-07-31T03:33:24.858Z,21.90
2022-07-31T03:35:53.839Z,21.80
2022-07-31T03:38:39.059Z,21.80
2022-07-31T03:41:08.998Z,21.80
2022-07-31T03:43:47.297Z,21.80
2022-07-31T03:46:18.228Z,21.80
2022-07-31T03:48:46.163Z,21.80
2022-07-31T03:51:14.221Z,21.80
2022-07-31T03:53:42.558Z,21.80
2022-07-31T03:56:17.712Z,21.80
2022-07-31T03:58:48.012Z,21.80
2022-07-31T04:01:21.138Z,21.70
2022-07-31T04:04:01.127Z,21.80
2022-07-31T04:06:37.586Z,21.80
2022-07-31T04:09:13.712Z,21.80
2022-07-31T04:11:47.436Z,21.80
2022-07-31T04:14:15.071Z,21.80
2022-07-31T04:16:42.124Z,21.80
2022-07-31T04:19:09.251Z,21.80
2022-07-31T04:21:36.743Z,21.80
2022-07-31T04:24:05.595Z,21.80
2022-07-31T04:26:49.465Z,21.90
2022-07-31T04:29:17.523Z,21.90
2022-07-31T04:31:44.497Z,21.90
2022-07-31T04:34:15.739Z,21.90
2022-07-31T04:36:42.785Z,22.00
2022-07-31T04:39:09.872Z,22.00
2022-07-31T04:41:36.900Z,22.00
2022-07-31T04:44:04.034Z,22.10
2022-07-31T04:46:45.542Z,22.10
2022-07-31T04:49:15.121Z,22.10
2022-07-31T04:51:43.760Z,22.20
2022-07-31T04:54:11.507Z,22.20
2022-07-31T04:56:45.740Z,22.20
2022-07-31T04:59:16.023Z,22.30
2022-07-31T05:01:47.549Z,22.50
2022-07-31T05:04:17.122Z,22.60
2022-07-31T05:06:48.725Z,22.80
2022-07-31T05:09:19.417Z,22.90
2022-07-31T05:11:52.780Z,23.10
2022-07-31T05:14:21.052Z,23.40
2022-07-31T05:16:48.492Z,24.00
2022-07-31T05:19:17.949Z,24.80
2022-07-31T05:22:05.419Z,25.60
2022-07-31T05:24:33.979Z,26.20
2022-07-31T05:27:21.518Z,26.80
2022-07-31T05:29:48.585Z,27.30
2022-07-31T05:32:16.737Z,27.70
2022-07-31T05:34:46.018Z,28.10
2022-07-31T05:37:12.998Z,28.50
2022-07-31T05:39:41.183Z,28.80
2022-07-31T05:42:26.601Z,29.10
2022-07-31T05:45:16.691Z,29.50
2022-07-31T05:47:43.653Z,29.80
2022-07-31T05:50:10.789Z,30.00
2022-07-31T05:52:38.786Z,30.40
2022-07-31T05:55:24.439Z,30.80
2022-07-31T05:58:14.816Z,31.10
2022-07-31T06:00:45.431Z,31.40
2022-07-31T06:03:13.392Z,31.90
2022-07-31T06:05:59.108Z,32.20
2022-07-31T06:08:26.397Z,32.50
2022-07-31T06:10:53.607Z,32.80
2022-07-31T06:13:24.946Z,33.00
2022-07-31T06:15:52.993Z,33.30
2022-07-31T06:18:21.065Z,33.50
2022-07-31T06:20:48.240Z,33.70
2022-07-31T06:23:22.658Z,33.80
2022-07-31T06:26:02.527Z,34.10
2022-07-31T06:28:38.827Z,34.40
2022-07-31T06:31:21.153Z,34.70
2022-07-31T06:33:50.060Z,35.00
2022-07-31T06:36:20.584Z,35.30
2022-07-31T06:38:56.176Z,35.60
2022-07-31T06:41:44.611Z,35.90
2022-07-31T06:44:46.107Z,36.10
2022-07-31T06:47:32.085Z,36.50
2022-07-31T06:50:02.507Z,36.80
2022-07-31T06:52:35.013Z,37.20
2022-07-31T06:55:03.459Z,37.60
2022-07-31T06:57:30.543Z,37.90
2022-07-31T06:59:57.591Z,38.40
2022-07-31T07:02:24.654Z,38.60
2022-07-31T07:05:06.166Z,38.90
2022-07-31T07:07:35.683Z,39.00
2022-07-31T07:10:05.757Z,39.00
2022-07-31T07:13:02.048Z,38.90
2022-07-31T07:15:35.598Z,38.60
2022-07-31T07:18:02.866Z,38.40
2022-07-31T07:20:44.378Z,38.10
2022-07-31T07:23:12.170Z,37.80
2022-07-31T07:25:48.379Z,37.80
2022-07-31T07:28:29.436Z,37.70
2022-07-31T07:30:59.263Z,37.60
2022-07-31T07:33:40.537Z,37.70
2022-07-31T07:36:23.286Z,37.70
2022-07-31T07:39:02.422Z,37.70
2022-07-31T07:41:31.492Z,37.70
2022-07-31T07:43:59.563Z,37.70
2022-07-31T07:46:28.660Z,37.60
2022-07-31T07:48:57.865Z,37.50
2022-07-31T07:51:58.338Z,37.60
2022-07-31T07:54:40.107Z,37.80
2022-07-31T07:57:23.154Z,38.00
2022-07-31T08:00:22.204Z,38.20
2022-07-31T08:03:46.623Z,38.20
2022-07-31T08:05:44.785Z,38.00
2022-07-31T08:08:11.841Z,37.90
2022-07-31T08:10:48.085Z,37.80
2022-07-31T08:13:33.768Z,38.00
2022-07-31T08:16:20.648Z,38.00
2022-07-31T08:18:51.703Z,38.00
2022-07-31T08:21:18.894Z,38.00
2022-07-31T08:23:47.401Z,38.20
2022-07-31T08:26:18.144Z,38.40
2022-07-31T08:28:49.894Z,38.40
2022-07-31T08:31:20.175Z,38.80
2022-07-31T08:34:31.039Z,39.30
2022-07-31T08:37:50.374Z,39.60
2022-07-31T08:39:51.591Z,39.30
2022-07-31T08:42:19.321Z,39.20
2022-07-31T08:44:46.950Z,39.30
2022-07-31T08:47:18.021Z,39.70
2022-07-31T08:49:47.047Z,40.00
2022-07-31T08:52:18.418Z,40.20
2022-07-31T08:55:09.368Z,40.20
2022-07-31T08:57:37.135Z,40.20
2022-07-31T09:00:11.246Z,40.20
2022-07-31T09:02:40.500Z,40.30
2022-07-31T09:05:22.743Z,40.60
2022-07-31T09:07:49.788Z,40.70
2022-07-31T09:10:21.941Z,40.60
2022-07-31T09:12:50.454Z,40.70
2022-07-31T09:15:25.069Z,40.80
2022-07-31T09:17:54.076Z,40.70
2022-07-31T09:20:26.082Z,40.40
2022-07-31T09:23:06.760Z,40.30
2022-07-31T09:25:36.405Z,40.50
2022-07-31T09:28:05.957Z,40.50
2022-07-31T09:30:34.794Z,40.70
2022-07-31T09:33:28.089Z,41.10
2022-07-31T09:36:01.170Z,41.10
2022-07-31T09:38:32.415Z,41.00
2022-07-31T09:42:01.500Z,40.90
2022-07-31T09:44:15.631Z,40.90
2022-07-31T09:46:45.773Z,40.70
2022-07-31T09:49:13.958Z,41.00
2022-07-31T09:51:45.450Z,41.00
2022-07-31T09:54:31.350Z,41.10
2022-07-31T09:56:59.154Z,41.50
2022-07-31T09:59:31.893Z,41.60
2022-07-31T10:01:59.108Z,42.00
2022-07-31T10:04:26.206Z,42.40
2022-07-31T10:06:54.405Z,42.40
2022-07-31T10:09:23.293Z,42.30
2022-07-31T10:12:16.066Z,42.20
2022-07-31T10:14:47.097Z,42.10
2022-07-31T10:17:19.550Z,42.30
2022-07-31T10:20:07.508Z,42.30
2022-07-31T10:22:59.432Z,42.40
2022-07-31T10:25:30.896Z,42.40
2022-07-31T10:27:58.874Z,42.70
2022-07-31T10:30:28.407Z,42.60
2022-07-31T10:32:59.219Z,42.70
2022-07-31T10:35:26.975Z,42.50
2022-07-31T10:38:17.979Z,42.70
2022-07-31T10:41:09.844Z,43.00
2022-07-31T10:43:52.815Z,43.30
2022-07-31T10:46:34.066Z,44.00
2022-07-31T10:49:17.127Z,44.40
2022-07-31T10:52:00.538Z,44.60
2022-07-31T10:54:44.621Z,44.60
2022-07-31T10:57:34.703Z,44.70
2022-07-31T11:00:39.112Z,43.90
2022-07-31T11:03:24.779Z,43.60
2022-07-31T11:06:16.056Z,44.00
2022-07-31T11:08:57.501Z,44.50
2022-07-31T11:11:44.621Z,44.70
2022-07-31T11:14:40.377Z,44.80
2022-07-31T11:18:20.686Z,45.10
2022-07-31T11:20:32.117Z,45.10
2022-07-31T11:23:01.515Z,44.90
2022-07-31T11:25:30.446Z,44.40
2022-07-31T11:28:09.431Z,44.10
2022-07-31T11:30:49.052Z,44.50
2022-07-31T11:33:16.249Z,44.70
2022-07-31T11:35:43.359Z,44.50
2022-07-31T11:38:10.343Z,44.70
2022-07-31T11:40:38.152Z,45.20
2022-07-31T11:43:25.606Z,45.20
2022-07-31T11:45:55.018Z,44.60
2022-07-31T11:48:27.239Z,44.10
2022-07-31T11:50:54.756Z,43.80
2022-07-31T11:53:22.048Z,44.00
2022-07-31T11:55:50.462Z,44.50
2022-07-31T11:58:19.795Z,44.20
2022-07-31T12:00:51.774Z,43.80
2022-07-31T12:03:20.636Z,43.50
2022-07-31T12:05:49.444Z,43.20
2022-07-31T12:08:17.346Z,43.00
2022-07-31T12:10:45.445Z,42.70
2022-07-31T12:13:21.153Z,42.50
2022-07-31T12:15:56.062Z,42.30
2022-07-31T12:18:23.317Z,41.80
2022-07-31T12:21:00.465Z,41.40
2022-07-31T12:23:41.762Z,41.10
2022-07-31T12:26:12.357Z,40.80
2022-07-31T12:28:40.718Z,40.60
2022-07-31T12:31:07.767Z,40.50
2022-07-31T12:33:43.130Z,40.30
2022-07-31T12:36:17.164Z,40.30
2022-07-31T12:38:48.986Z,40.40
2022-07-31T12:41:16.991Z,40.90
2022-07-31T12:43:51.836Z,41.30
2022-07-31T12:46:33.893Z,40.90
2022-07-31T12:49:01.028Z,40.20
2022-07-31T12:51:44.232Z,39.70
2022-07-31T12:54:15.352Z,39.10
2022-07-31T12:56:43.066Z,38.40
2022-07-31T12:59:10.955Z,38.10
2022-07-31T13:01:38.379Z,37.90
2022-07-31T13:04:07.948Z,37.50
2022-07-31T13:06:45.648Z,37.40
2022-07-31T13:09:12.601Z,37.60
2022-07-31T13:11:45.928Z,37.90
2022-07-31T13:14:16.831Z,38.10
2022-07-31T13:16:44.865Z,38.30
2022-07-31T13:19:12.964Z,38.40
2022-07-31T13:21:49.648Z,38.20
2022-07-31T13:24:20.894Z,37.70
2022-07-31T13:26:49.332Z,37.40
2022-07-31T13:29:17.248Z,37.30
2022-07-31T13:31:44.389Z,37.50
2022-07-31T13:34:11.571Z,37.60
2022-07-31T13:36:39.612Z,37.40
2022-07-31T13:39:08.257Z,37.40
2022-07-31T13:41:35.982Z,37.50
2022-07-31T13:44:06.845Z,37.30
2022-07-31T13:46:34.159Z,36.90
2022-07-31T13:49:02.262Z,36.80
2022-07-31T13:51:30.301Z,36.70
2022-07-31T13:53:57.387Z,36.60
2022-07-31T13:56:39.145Z,36.70
2022-07-31T13:59:13.020Z,36.60
2022-07-31T14:02:03.849Z,36.30
2022-07-31T14:04:32.296Z,36.00
2022-07-31T14:07:01.407Z,35.70
2022-07-31T14:09:34.142Z,35.70
2022-07-31T14:12:04.617Z,35.50
2022-07-31T14:14:32.820Z,35.50
2022-07-31T14:16:59.829Z,35.60
2022-07-31T14:19:26.892Z,35.60
2022-07-31T14:22:10.910Z,35.50
2022-07-31T14:24:38.222Z,35.20
2022-07-31T14:27:05.222Z,35.00
2022-07-31T14:29:32.202Z,34.80
2022-07-31T14:32:03.711Z,34.60
2022-07-31T14:34:35.528Z,34.60
2022-07-31T14:37:03.426Z,34.60
2022-07-31T14:39:30.965Z,34.50
2022-07-31T14:41:57.996Z,34.50
2022-07-31T14:44:28.816Z,34.40
2022-07-31T14:46:56.383Z,34.30
2022-07-31T14:49:23.594Z,34.30
2022-07-31T14:51:50.589Z,34.50
2022-07-31T14:54:17.556Z,34.70
2022-07-31T14:57:00.678Z,35.00
2022-07-31T14:59:31.883Z,35.10
2022-07-31T15:01:59.187Z,35.10
2022-07-31T15:04:26.444Z,35.00
2022-07-31T15:07:07.600Z,35.00
2022-07-31T15:09:40.504Z,34.90
2022-07-31T15:12:07.878Z,34.70
2022-07-31T15:14:35.361Z,34.60
2022-07-31T15:17:02.450Z,34.60
2022-07-31T15:19:29.811Z,34.60
2022-07-31T15:22:15.936Z,34.80
2022-07-31T15:24:48.836Z,34.80
2022-07-31T15:27:18.251Z,34.70
2022-07-31T15:30:05.423Z,34.80
2022-07-31T15:32:32.371Z,34.80
2022-07-31T15:34:59.380Z,34.80
2022-07-31T15:37:26.379Z,34.70
2022-07-31T15:40:01.538Z,34.60
2022-07-31T15:42:34.181Z,34.70
2022-07-31T15:45:01.887Z,34.70
2022-07-31T15:47:29.076Z,34.60
2022-07-31T15:49:56.045Z,34.60
2022-07-31T15:52:23.106Z,34.50
2022-07-31T15:54:52.114Z,34.40
2022-07-31T15:57:22.771Z,34.30
2022-07-31T15:59:54.462Z,34.20
2022-07-31T16:02:22.606Z,34.10
2022-07-31T16:04:52.874Z,34.20
2022-07-31T16:08:30.114Z,34.20
2022-07-31T16:10:16.204Z,34.20
2022-07-31T16:12:48.442Z,34.20
2022-07-31T16:15:17.002Z,34.00
2022-07-31T16:17:44.700Z,34.00
2022-07-31T16:20:11.926Z,33.90
2022-07-31T16:22:40.783Z,34.00
2022-07-31T16:25:09.993Z,34.00
2022-07-31T16:27:38.180Z,34.00
2022-07-31T16:30:06.930Z,33.90
2022-07-31T16:32:34.349Z,33.90
2022-07-31T16:35:01.814Z,33.80
2022-07-31T16:37:51.679Z,33.70
2022-07-31T16:40:30.758Z,33.80
2022-07-31T16:43:48.735Z,33.90
2022-07-31T16:45:51.675Z,33.80
2022-07-31T16:48:18.996Z,33.70
2022-07-31T16:50:48.154Z,33.70
2022-07-31T16:54:10.911Z,33.70
2022-07-31T16:56:07.052Z,33.60
2022-07-31T16:58:34.919Z,33.50
2022-07-31T17:01:04.139Z,33.40
2022-07-31T17:04:01.297Z,33.40
2022-07-31T17:06:18.528Z,33.30
2022-07-31T17:09:17.047Z,33.20
2022-07-31T17:11:47.499Z,33.20
2022-07-31T17:14:15.387Z,33.20
2022-07-31T17:16:47.160Z,33.20
2022-07-31T17:19:42.087Z,33.00
2022-07-31T17:22:07.438Z,32.80
2022-07-31T17:24:37.383Z,32.60
2022-07-31T17:27:06.771Z,32.50
2022-07-31T17:29:34.088Z,32.30
2022-07-31T17:32:01.048Z,32.20
2022-07-31T17:34:28.118Z,32.20
2022-07-31T17:36:55.137Z,32.10
2022-07-31T17:39:22.099Z,32.00
2022-07-31T17:41:49.124Z,32.00
2022-07-31T17:44:16.136Z,31.90
2022-07-31T17:46:48.832Z,31.80
2022-07-31T17:49:20.379Z,31.80
2022-07-31T17:51:59.326Z,31.70
2022-07-31T17:54:34.774Z,31.70
2022-07-31T17:57:02.483Z,31.50
2022-07-31T17:59:30.371Z,31.50
2022-07-31T18:02:03.235Z,31.40
2022-07-31T18:04:33.550Z,31.30
2022-07-31T18:07:01.654Z,31.20
2022-07-31T18:09:28.766Z,31.10
2022-07-31T18:11:57.059Z,31.00
2022-07-31T18:14:24.995Z,30.90
2022-07-31T18:16:52.754Z,30.80
2022-07-31T18:19:21.633Z,30.70
2022-07-31T18:21:49.440Z,30.60
2022-07-31T18:24:16.483Z,30.50
2022-07-31T18:26:43.463Z,30.40
2022-07-31T18:29:10.658Z,30.30
2022-07-31T18:31:38.137Z,30.20
2022-07-31T18:34:06.276Z,30.10
2022-07-31T18:36:34.473Z,30.00
2022-07-31T18:39:02.081Z,29.90
2022-07-31T18:41:29.813Z,29.80
2022-07-31T18:43:57.493Z,29.70
2022-07-31T18:46:24.891Z,29.70
2022-07-31T18:48:55.870Z,29.70
2022-07-31T18:51:24.796Z,29.60
2022-07-31T18:53:54.508Z,29.50
2022-07-31T18:56:25.891Z,29.50
2022-07-31T18:58:54.118Z,29.40
2022-07-31T19:01:21.817Z,29.30
2022-07-31T19:03:49.709Z,29.20
2022-07-31T19:06:17.292Z,29.10
2022-07-31T19:08:44.400Z,29.10
2022-07-31T19:11:12.290Z,29.00
2022-07-31T19:13:39.345Z,29.00
2022-07-31T19:16:06.770Z,28.90
2022-07-31T19:18:34.134Z,28.80
2022-07-31T19:21:22.728Z,28.70
2022-07-31T19:23:49.088Z,28.70
2022-07-31T19:26:16.388Z,28.60
2022-07-31T19:28:44.020Z,28.50
2022-07-31T19:31:13.677Z,28.40
2022-07-31T19:33:41.542Z,28.40
2022-07-31T19:36:10.758Z,28.30
2022-07-31T19:38:38.257Z,28.20
2022-07-31T19:41:05.459Z,28.20
2022-07-31T19:43:33.271Z,28.20
2022-07-31T19:46:11.800Z,28.10
2022-07-31T19:48:41.705Z,28.10
2022-07-31T19:51:09.919Z,28.00
2022-07-31T19:53:37.503Z,27.90
2022-07-31T19:56:07.621Z,27.90
2022-07-31T19:58:36.170Z,27.80
2022-07-31T20:01:06.151Z,27.80
2022-07-31T20:03:33.540Z,27.80
2022-07-31T20:06:04.333Z,27.70
2022-07-31T20:08:33.323Z,27.60
2022-07-31T20:11:03.954Z,27.60
2022-07-31T20:13:34.816Z,27.60
2022-07-31T20:16:02.216Z,27.50
2022-07-31T20:18:30.770Z,27.50
2022-07-31T20:21:06.527Z,27.50
2022-07-31T20:23:34.671Z,27.50
2022-07-31T20:26:01.787Z,27.40
2022-07-31T20:28:28.991Z,27.40
2022-07-31T20:30:56.042Z,27.40
2022-07-31T20:33:24.373Z,27.30
2022-07-31T20:35:51.380Z,27.30
2022-07-31T20:38:19.528Z,27.20
2022-07-31T20:40:53.588Z,27.20
2022-07-31T20:43:27.724Z,27.10
2022-07-31T20:45:58.779Z,27.10
2022-07-31T20:48:33.105Z,27.00
2022-07-31T20:51:01.707Z,27.00
2022-07-31T20:53:29.775Z,27.00
2022-07-31T20:55:57.306Z,27.00
2022-07-31T20:58:26.052Z,27.00
2022-07-31T21:00:53.702Z,26.90
2022-07-31T21:03:21.498Z,26.90
2022-07-31T21:05:49.010Z,26.90
2022-07-31T21:08:16.521Z,26.80
2022-07-31T21:10:44.128Z,26.80
2022-07-31T21:13:11.433Z,26.80
2022-07-31T21:15:41.808Z,26.70
2022-07-31T21:18:11.940Z,26.70
2022-07-31T21:20:51.156Z,26.70
2022-07-31T21:23:25.373Z,26.70
2022-07-31T21:25:54.241Z,26.70
2022-07-31T21:28:22.880Z,26.70
2022-07-31T21:30:50.482Z,26.60
2022-07-31T21:33:18.299Z,26.50
2022-07-31T21:35:46.380Z,26.50
2022-07-31T21:38:16.001Z,26.40
2022-07-31T21:40:43.847Z,26.40
2022-07-31T21:43:12.487Z,26.40
2022-07-31T21:45:55.329Z,26.40
2022-07-31T21:48:27.089Z,26.40
2022-07-31T21:50:54.796Z,26.40
2022-07-31T21:53:22.989Z,26.30
2022-07-31T21:55:50.771Z,26.30
2022-07-31T21:58:18.237Z,26.30
2022-07-31T22:00:45.471Z,26.20
2022-07-31T22:03:12.702Z,26.20
2022-07-31T22:05:58.097Z,26.20
2022-07-31T22:08:25.190Z,26.20
2022-07-31T22:10:52.656Z,26.20
2022-07-31T22:13:20.420Z,26.20
2022-07-31T22:15:58.131Z,26.20
2022-07-31T22:18:32.459Z,26.20
2022-07-31T22:21:01.594Z,26.20
2022-07-31T22:23:29.040Z,26.10
2022-07-31T22:25:57.145Z,26.20
2022-07-31T22:28:25.826Z,26.20
2022-07-31T22:30:53.660Z,26.10
2022-07-31T22:33:21.553Z,26.10
2022-07-31T22:35:58.912Z,26.10
2022-07-31T22:38:31.077Z,26.10
2022-07-31T22:41:01.605Z,26.10
2022-07-31T22:44:09.615Z,26.00
2022-07-31T22:46:16.201Z,26.00
2022-07-31T22:48:45.783Z,26.00
2022-07-31T22:51:14.791Z,26.00
2022-07-31T22:53:49.023Z,25.90
2022-07-31T22:56:17.382Z,25.90
2022-07-31T22:58:44.371Z,25.90
2022-07-31T23:01:11.344Z,25.80
2022-07-31T23:03:38.285Z,25.80
2022-07-31T23:06:31.818Z,25.80
2022-07-31T23:08:54.602Z,25.80
2022-07-31T23:11:22.971Z,25.80
2022-07-31T23:13:50.473Z,25.80
2022-07-31T23:16:17.500Z,25.80
2022-07-31T23:18:44.466Z,25.80
2022-07-31T23:21:11.658Z,25.80
2022-07-31T23:23:38.739Z,25.70
2022-07-31T23:26:05.905Z,25.70
2022-07-31T23:28:33.773Z,25.70
2022-07-31T23:31:00.759Z,25.70
2022-07-31T23:33:27.741Z,25.70
2022-07-31T23:35:54.806Z,25.70
2022-07-31T23:38:22.064Z,25.60
2022-07-31T23:40:49.025Z,25.60
2022-07-31T23:43:20.598Z,25.60
2022-07-31T23:45:47.911Z,25.60
2022-07-31T23:48:15.230Z,25.60
2022-07-31T23:50:44.231Z,25.60
2022-07-31T23:53:11.232Z,25.60
2022-07-31T23:55:42.544Z,25.60
2022-07-31T23:58:10.467Z,25.50
